createdAt,value
2018-02-05T12:04:51.274Z,4.75
2018-02-05T12:05:51.193Z,4.57
2018-02-05T12:06:51.183Z,4.42
2018-02-05T12:07:51.144Z,4.46
2018-02-05T12:08:51.122Z,4.57
2018-02-05T12:09:51.107Z,4.51
2018-02-05T12:10:51.089Z,4.46
2018-02-05T12:11:51.061Z,4.57
2018-02-05T12:12:51.044Z,4.47
2018-02-05T12:13:51.013Z,4.58
2018-02-05T12:14:50.992Z,4.59
2018-02-05T12:15:50.977Z,4.58
2018-02-05T12:16:50.955Z,4.70
2018-02-05T12:17:50.951Z,4.62
2018-02-05T12:18:50.917Z,4.59
2018-02-05T12:19:50.915Z,4.54
2018-02-05T12:20:50.930Z,4.58
2018-02-05T12:21:50.861Z,4.52
2018-02-05T12:22:50.872Z,4.40
2018-02-05T12:23:50.809Z,4.34
2018-02-05T12:24:50.787Z,4.19
2018-02-05T12:25:50.775Z,4.25
2018-02-05T12:26:50.735Z,4.16
2018-02-05T12:27:50.732Z,4.19
2018-02-05T12:28:50.716Z,4.25
2018-02-05T12:29:50.680Z,4.32
2018-02-05T12:30:50.668Z,4.28
2018-02-05T12:31:50.703Z,4.19
2018-02-05T12:32:50.630Z,4.18
2018-02-05T12:33:50.586Z,4.19
2018-02-05T12:34:50.579Z,4.21
2018-02-05T12:35:50.543Z,4.25
2018-02-05T12:36:50.535Z,4.24
2018-02-05T12:37:50.512Z,4.21
2018-02-05T12:38:50.473Z,4.18
2018-02-05T12:39:50.469Z,4.18
2018-02-05T12:40:50.438Z,4.22
2018-02-05T12:41:50.428Z,4.26
2018-02-05T12:42:50.388Z,4.36
2018-02-05T12:43:50.376Z,4.46
2018-02-05T12:44:50.386Z,4.43
2018-02-05T12:45:50.382Z,4.40
2018-02-05T12:46:50.349Z,4.40
2018-02-05T12:47:50.297Z,4.40
2018-02-05T12:48:50.259Z,4.50
2018-02-05T12:49:50.261Z,4.55
2018-02-05T12:50:50.292Z,4.61
2018-02-05T12:51:50.224Z,4.57
2018-02-05T12:52:50.197Z,4.44
2018-02-05T12:53:50.153Z,4.46
2018-02-05T12:54:50.134Z,4.50
2018-02-05T12:55:50.150Z,4.39
2018-02-05T12:56:50.090Z,4.40
2018-02-05T12:57:50.071Z,4.36
2018-02-05T12:58:50.059Z,4.26
2018-02-05T12:59:50.040Z,4.25
2018-02-05T13:00:50.018Z,4.19
2018-02-05T13:01:50.002Z,4.25
2018-02-05T13:02:50.025Z,4.21
2018-02-05T13:03:49.954Z,4.25
2018-02-05T13:04:49.923Z,4.12
2018-02-05T13:05:49.902Z,4.19
2018-02-05T13:06:49.873Z,4.18
2018-02-05T13:07:49.876Z,4.28
2018-02-05T13:08:49.842Z,4.32
2018-02-05T13:09:49.825Z,4.34
2018-02-05T13:10:49.815Z,4.40
2018-02-05T13:11:49.867Z,4.44
2018-02-05T13:12:49.745Z,4.43
2018-02-05T13:13:49.735Z,4.36
2018-02-05T13:14:49.713Z,4.34
2018-02-05T13:15:49.695Z,4.28
2018-02-05T13:16:49.667Z,4.16
2018-02-05T13:17:49.661Z,4.25
2018-02-05T13:18:49.648Z,4.24
2018-02-05T13:19:49.603Z,4.19
2018-02-05T13:20:49.574Z,4.15
2018-02-05T13:21:49.553Z,4.24
2018-02-05T13:22:49.547Z,4.33
2018-02-05T13:23:49.532Z,4.28
2018-02-05T13:24:49.478Z,4.34
2018-02-05T13:25:49.469Z,4.26
2018-02-05T13:26:49.436Z,4.21
2018-02-05T13:27:49.422Z,4.24
2018-02-05T13:28:49.451Z,4.28
2018-02-05T13:29:49.422Z,4.34
2018-02-05T13:30:49.381Z,4.24
2018-02-05T13:31:49.349Z,4.26
2018-02-05T13:32:49.333Z,4.22
2018-02-05T13:33:49.311Z,4.18
2018-02-05T13:34:49.272Z,4.22
2018-02-05T13:35:49.272Z,4.24
2018-02-05T13:36:49.235Z,4.19
2018-02-05T13:37:49.218Z,4.16
2018-02-05T13:38:49.190Z,4.29
2018-02-05T13:39:49.161Z,4.36
2018-02-05T13:40:49.151Z,4.47
2018-02-05T13:41:49.118Z,4.40
2018-02-05T13:42:49.135Z,4.32
2018-02-05T13:43:49.105Z,4.51
2018-02-05T13:44:49.139Z,4.46
2018-02-05T13:45:49.063Z,4.34
2018-02-05T13:46:49.008Z,4.43
2018-02-05T13:47:48.994Z,4.32
2018-02-05T13:48:48.985Z,4.33
2018-02-05T13:49:48.967Z,4.32
2018-02-05T13:50:48.935Z,4.33
2018-02-05T13:51:48.895Z,4.33
2018-02-05T13:52:48.905Z,4.42
2018-02-05T13:53:48.874Z,4.51
2018-02-05T13:54:48.838Z,4.40
2018-02-05T13:55:48.816Z,4.46
2018-02-05T13:56:48.796Z,4.43
2018-02-05T13:57:48.772Z,4.46
2018-02-05T13:58:48.757Z,4.46
2018-02-05T13:59:48.777Z,4.54
2018-02-05T14:00:48.734Z,4.58
2018-02-05T14:01:48.697Z,4.58
2018-02-05T14:02:48.658Z,4.54
2018-02-05T14:03:48.651Z,4.44
2018-02-05T14:04:48.635Z,4.39
2018-02-05T14:05:48.609Z,4.40
2018-02-05T14:06:48.582Z,4.32
2018-02-05T14:07:48.557Z,4.33
2018-02-05T14:08:48.536Z,4.29
2018-02-05T14:09:48.583Z,4.26
2018-02-05T14:10:48.500Z,4.32
2018-02-05T14:11:48.500Z,4.40
2018-02-05T14:12:48.462Z,4.28
2018-02-05T14:13:48.426Z,4.29
2018-02-05T14:14:48.412Z,4.22
2018-02-05T14:15:48.410Z,4.26
2018-02-05T14:16:48.362Z,4.22
2018-02-05T14:17:48.330Z,4.19
2018-02-05T14:18:48.313Z,4.28
2018-02-05T14:19:48.297Z,4.25
2018-02-05T14:20:48.281Z,4.19
2018-02-05T14:21:48.276Z,4.24
2018-02-05T14:22:48.296Z,4.18
2018-02-05T14:23:48.213Z,4.18
2018-02-05T14:24:48.241Z,4.22
2018-02-05T14:25:48.181Z,4.16
2018-02-05T14:26:48.148Z,4.18
2018-02-05T14:27:48.121Z,4.15
2018-02-05T14:28:48.156Z,4.22
2018-02-05T14:29:48.068Z,4.15
2018-02-05T14:30:48.068Z,4.10
2018-02-05T14:31:48.034Z,4.15
2018-02-05T14:32:48.024Z,4.14
2018-02-05T14:33:48.056Z,4.15
2018-02-05T14:34:48.049Z,4.14
2018-02-05T14:35:47.994Z,4.21
2018-02-05T14:36:47.952Z,4.24
2018-02-05T14:37:47.918Z,4.22
2018-02-05T14:38:47.903Z,4.18
2018-02-05T14:39:48.022Z,4.21
2018-02-05T14:40:47.843Z,4.16
2018-02-05T14:41:47.857Z,4.14
2018-02-05T14:42:47.819Z,4.03
2018-02-05T14:43:47.765Z,4.03
2018-02-05T14:44:47.744Z,4.03
2018-02-05T14:45:47.740Z,3.96
2018-02-05T14:46:47.713Z,3.96
2018-02-05T14:47:47.741Z,3.82
2018-02-05T14:48:47.668Z,3.98
2018-02-05T14:49:47.677Z,4.06
2018-02-05T14:50:47.660Z,4.01
2018-02-05T14:51:47.596Z,4.03
2018-02-05T14:52:47.577Z,3.98
2018-02-05T14:53:47.556Z,3.89
2018-02-05T14:54:47.555Z,3.94
2018-02-05T14:55:47.523Z,3.94
2018-02-05T14:56:47.486Z,3.88
2018-02-05T14:57:47.462Z,3.89
2018-02-05T14:58:47.451Z,3.90
2018-02-05T14:59:47.417Z,3.86
2018-02-05T15:00:47.392Z,3.98
2018-02-05T15:01:47.395Z,3.97
2018-02-05T15:02:47.352Z,3.94
2018-02-05T15:03:47.335Z,3.96
2018-02-05T15:04:47.309Z,3.86
2018-02-05T15:05:47.286Z,3.90
2018-02-05T15:06:47.262Z,3.80
2018-02-05T15:07:47.241Z,3.80
2018-02-05T15:08:47.224Z,3.88
2018-02-05T15:09:47.204Z,3.85
2018-02-05T15:10:47.177Z,3.98
2018-02-05T15:11:47.169Z,3.92
2018-02-05T15:12:47.184Z,3.98
2018-02-05T15:13:47.127Z,3.94
2018-02-05T15:14:47.134Z,3.94
2018-02-05T15:15:47.076Z,3.98
2018-02-05T15:16:47.130Z,3.98
2018-02-05T15:17:47.035Z,3.90
2018-02-05T15:18:47.078Z,3.98
2018-02-05T15:19:46.999Z,4.04
2018-02-05T15:20:47.008Z,4.06
2018-02-05T15:21:46.965Z,4.03
2018-02-05T15:22:46.921Z,3.96
2018-02-05T15:23:46.918Z,4.14
2018-02-05T15:24:46.906Z,4.10
2018-02-05T15:25:46.857Z,4.08
2018-02-05T15:26:46.825Z,4.03
2018-02-05T15:27:46.808Z,4.10
2018-02-05T15:28:46.784Z,4.08
2018-02-05T15:29:46.796Z,4.03
2018-02-05T15:30:46.804Z,4.03
2018-02-05T15:31:46.735Z,4.06
2018-02-05T15:32:46.695Z,4.03
2018-02-05T15:33:46.675Z,4.10
2018-02-05T15:34:46.651Z,4.14
2018-02-05T15:35:46.628Z,4.07
2018-02-05T15:36:46.619Z,3.98
2018-02-05T15:37:46.603Z,4.01
2018-02-05T15:38:46.587Z,3.97
2018-02-05T15:39:46.533Z,4.01
2018-02-05T15:40:46.524Z,4.01
2018-02-05T15:41:47.107Z,4.06
2018-02-05T15:42:46.593Z,4.01
2018-02-05T15:43:46.710Z,3.92
2018-02-05T15:44:46.449Z,3.85
2018-02-05T15:45:46.425Z,3.86
2018-02-05T15:46:46.409Z,3.92
2018-02-05T15:47:46.465Z,3.88
2018-02-05T15:48:46.341Z,3.82
2018-02-05T15:49:46.324Z,3.71
2018-02-05T15:50:46.299Z,3.80
2018-02-05T15:51:46.282Z,3.71
2018-02-05T15:52:46.253Z,3.70
2018-02-05T15:53:46.243Z,3.65
2018-02-05T15:54:46.220Z,3.65
2018-02-05T15:55:46.189Z,3.78
2018-02-05T15:56:46.189Z,3.76
2018-02-05T15:57:46.168Z,3.78
2018-02-05T15:58:46.135Z,3.71
2018-02-05T15:59:46.123Z,3.65
2018-02-05T16:00:46.086Z,3.67
2018-02-05T16:01:46.052Z,3.71
2018-02-05T16:02:46.038Z,3.72
2018-02-05T16:03:46.022Z,3.65
2018-02-05T16:04:45.990Z,3.53
2018-02-05T16:05:45.967Z,3.61
2018-02-05T16:06:45.937Z,3.60
2018-02-05T16:07:45.920Z,3.79
2018-02-05T16:08:45.913Z,3.67
2018-02-05T16:09:45.875Z,3.65
2018-02-05T16:10:45.897Z,3.67
2018-02-05T16:11:45.830Z,3.61
2018-02-05T16:12:45.818Z,3.64
2018-02-05T16:13:45.783Z,3.68
2018-02-05T16:14:45.767Z,3.60
2018-02-05T16:15:45.759Z,3.58
2018-02-05T16:16:45.712Z,3.54
2018-02-05T16:17:45.687Z,3.58
2018-02-05T16:18:45.686Z,3.52
2018-02-05T16:19:45.662Z,3.58
2018-02-05T16:20:45.629Z,3.58
2018-02-05T16:21:45.603Z,3.54
2018-02-05T16:22:45.597Z,3.46
2018-02-05T16:23:45.555Z,3.60
2018-02-05T16:24:45.549Z,3.50
2018-02-05T16:25:45.546Z,3.44
2018-02-05T16:26:45.500Z,3.36
2018-02-05T16:27:45.473Z,3.47
2018-02-05T16:28:45.446Z,3.52
2018-02-05T16:29:45.438Z,3.47
2018-02-05T16:30:45.409Z,3.46
2018-02-05T16:31:45.388Z,3.34
2018-02-05T16:32:45.385Z,3.39
2018-02-05T16:33:45.329Z,3.43
2018-02-05T16:34:45.314Z,3.24
2018-02-05T16:35:45.403Z,3.24
2018-02-05T16:36:45.268Z,3.30
2018-02-05T16:37:45.264Z,3.25
2018-02-05T16:38:45.217Z,3.25
2018-02-05T16:39:45.199Z,3.18
2018-02-05T16:40:45.179Z,3.23
2018-02-05T16:41:45.157Z,3.21
2018-02-05T16:42:45.135Z,3.06
2018-02-05T16:43:45.114Z,3.02
2018-02-05T16:44:45.086Z,2.98
2018-02-05T16:45:45.077Z,2.97
2018-02-05T16:46:45.042Z,2.97
2018-02-05T16:47:45.026Z,3.06
2018-02-05T16:48:45.001Z,2.98
2018-02-05T16:49:44.978Z,2.98
2018-02-05T16:50:44.965Z,3.02
2018-02-05T16:51:44.938Z,2.88
2018-02-05T16:52:44.904Z,2.94
2018-02-05T16:53:44.912Z,2.98
2018-02-05T16:54:44.874Z,2.97
2018-02-05T16:55:44.852Z,2.92
2018-02-05T16:56:44.844Z,2.88
2018-02-05T16:57:44.795Z,2.94
2018-02-05T16:58:44.799Z,2.88
2018-02-05T16:59:44.745Z,2.88
2018-02-05T17:00:44.782Z,2.87
2018-02-05T17:01:44.711Z,2.81
2018-02-05T17:02:44.693Z,2.69
2018-02-05T17:03:44.662Z,2.77
2018-02-05T17:04:44.717Z,2.73
2018-02-05T17:05:44.618Z,2.69
2018-02-05T17:06:44.596Z,2.67
2018-02-05T17:07:44.556Z,2.55
2018-02-05T17:08:44.544Z,2.53
2018-02-05T17:09:44.526Z,2.58
2018-02-05T17:10:44.498Z,2.58
2018-02-05T17:11:44.483Z,2.63
2018-02-05T17:12:44.448Z,2.64
2018-02-05T17:13:44.436Z,2.63
2018-02-05T17:14:44.418Z,2.55
2018-02-05T17:15:44.469Z,2.49
2018-02-05T17:16:44.355Z,2.44
2018-02-05T17:17:44.340Z,2.49
2018-02-05T17:18:44.317Z,2.49
2018-02-05T17:19:44.292Z,2.49
2018-02-05T17:20:44.275Z,2.44
2018-02-05T17:21:44.244Z,2.40
2018-02-05T17:22:44.227Z,2.35
2018-02-05T17:23:44.211Z,2.35
2018-02-05T17:24:44.182Z,2.49
2018-02-05T17:25:44.162Z,2.45
2018-02-05T17:26:44.123Z,2.38
2018-02-05T17:27:44.103Z,2.33
2018-02-05T17:28:44.082Z,2.37
2018-02-05T17:29:44.063Z,2.33
2018-02-05T17:30:44.046Z,2.28
2018-02-05T17:31:44.019Z,2.22
2018-02-05T17:32:43.994Z,2.19
2018-02-05T17:33:43.967Z,2.09
2018-02-05T17:34:43.955Z,2.13
2018-02-05T17:35:43.916Z,2.12
2018-02-05T17:36:43.896Z,2.06
2018-02-05T17:37:43.880Z,2.15
2018-02-05T17:38:43.861Z,2.13
2018-02-05T17:39:43.860Z,2.13
2018-02-05T17:40:43.807Z,2.13
2018-02-05T17:41:43.780Z,2.12
2018-02-05T17:42:43.762Z,2.04
2018-02-05T17:43:43.730Z,2.01
2018-02-05T17:44:43.756Z,2.10
2018-02-05T17:45:43.710Z,2.15
2018-02-05T17:46:43.668Z,2.12
2018-02-05T17:47:43.675Z,2.10
2018-02-05T17:48:43.614Z,2.13
2018-02-05T17:49:43.605Z,2.12
2018-02-05T17:50:43.572Z,2.13
2018-02-05T17:51:43.540Z,2.15
2018-02-05T17:52:43.547Z,2.10
2018-02-05T17:53:43.535Z,2.06
2018-02-05T17:54:43.482Z,2.09
2018-02-05T17:55:43.465Z,2.08
2018-02-05T17:56:43.466Z,2.08
2018-02-05T17:57:43.412Z,2.10
2018-02-05T17:58:43.424Z,2.12
2018-02-05T17:59:43.376Z,2.09
2018-02-05T18:00:43.369Z,2.09
2018-02-05T18:01:43.336Z,2.16
2018-02-05T18:02:43.301Z,2.20
2018-02-05T18:03:43.274Z,2.20
2018-02-05T18:04:43.242Z,2.34
2018-02-05T18:05:43.222Z,2.35
2018-02-05T18:06:43.200Z,2.33
2018-02-05T18:07:43.181Z,2.20
2018-02-05T18:08:43.152Z,2.15
2018-02-05T18:09:43.144Z,2.16
2018-02-05T18:10:43.109Z,2.17
2018-02-05T18:11:43.088Z,2.15
2018-02-05T18:12:43.065Z,2.08
2018-02-05T18:13:43.053Z,2.15
2018-02-05T18:14:43.030Z,2.16
2018-02-05T18:15:42.990Z,2.13
2018-02-05T18:16:42.970Z,2.13
2018-02-05T18:17:42.949Z,2.15
2018-02-05T18:18:42.917Z,2.13
2018-02-05T18:19:42.900Z,2.13
2018-02-05T18:20:42.873Z,2.02
2018-02-05T18:21:42.840Z,2.02
2018-02-05T18:22:42.829Z,1.89
2018-02-05T18:23:42.802Z,2.01
2018-02-05T18:24:42.784Z,1.97
2018-02-05T18:25:42.761Z,1.90
2018-02-05T18:26:42.728Z,1.99
2018-02-05T18:27:42.725Z,2.01
2018-02-05T18:28:42.681Z,1.90
2018-02-05T18:29:42.676Z,1.90
2018-02-05T18:30:42.661Z,1.89
2018-02-05T18:31:42.635Z,1.87
2018-02-05T18:32:42.632Z,1.90
2018-02-05T18:33:42.570Z,1.82
2018-02-05T18:34:42.541Z,1.76
2018-02-05T18:35:42.511Z,1.69
2018-02-05T18:36:42.536Z,1.76
2018-02-05T18:37:42.486Z,1.79
2018-02-05T18:38:42.453Z,1.71
2018-02-05T18:39:42.495Z,1.72
2018-02-05T18:40:42.420Z,1.71
2018-02-05T18:41:42.400Z,1.68
2018-02-05T18:42:42.411Z,1.73
2018-02-05T18:43:42.349Z,1.65
2018-02-05T18:44:42.333Z,1.71
2018-02-05T18:45:42.320Z,1.65
2018-02-05T18:46:42.262Z,1.64
2018-02-05T18:47:42.233Z,1.69
2018-02-05T18:48:42.209Z,1.69
2018-02-05T18:49:42.202Z,1.68
2018-02-05T18:50:42.180Z,1.80
2018-02-05T18:51:42.145Z,1.76
2018-02-05T18:52:42.125Z,1.80
2018-02-05T18:53:42.110Z,1.72
2018-02-05T18:54:42.070Z,1.69
2018-02-05T18:55:42.052Z,1.68
2018-02-05T18:56:42.076Z,1.69
2018-02-05T18:57:41.996Z,1.71
2018-02-05T18:58:41.999Z,1.69
2018-02-05T18:59:41.955Z,1.57
2018-02-05T19:00:41.931Z,1.62
2018-02-05T19:01:41.902Z,1.72
2018-02-05T19:02:41.881Z,1.75
2018-02-05T19:03:41.858Z,1.71
2018-02-05T19:04:41.875Z,1.78
2018-02-05T19:05:41.810Z,1.73
2018-02-05T19:06:41.807Z,1.79
2018-02-05T19:07:41.843Z,1.76
2018-02-05T19:08:41.742Z,1.76
2018-02-05T19:09:41.715Z,1.71
2018-02-05T19:10:41.692Z,1.73
2018-02-05T19:11:41.696Z,1.73
2018-02-05T19:12:41.681Z,1.72
2018-02-05T19:13:41.642Z,1.65
2018-02-05T19:14:41.626Z,1.68
2018-02-05T19:15:41.576Z,1.76
2018-02-05T19:16:41.549Z,1.68
2018-02-05T19:17:41.539Z,1.73
2018-02-05T19:18:41.509Z,1.71
2018-02-05T19:19:41.487Z,1.76
2018-02-05T19:20:41.463Z,1.80
2018-02-05T19:21:41.438Z,1.80
2018-02-05T19:22:41.403Z,1.78
2018-02-05T19:23:41.394Z,1.79
2018-02-05T19:24:41.358Z,1.82
2018-02-05T19:25:41.342Z,1.79
2018-02-05T19:26:41.318Z,1.80
2018-02-05T19:27:41.298Z,1.82
2018-02-05T19:28:41.276Z,1.73
2018-02-05T19:29:41.245Z,1.69
2018-02-05T19:30:41.242Z,1.73
2018-02-05T19:31:41.208Z,1.73
2018-02-05T19:32:41.202Z,1.68
2018-02-05T19:33:41.166Z,1.75
2018-02-05T19:34:41.167Z,1.69
2018-02-05T19:35:41.109Z,1.64
2018-02-05T19:36:41.080Z,1.58
2018-02-05T19:37:41.070Z,1.54
2018-02-05T19:38:41.033Z,1.68
2018-02-05T19:39:41.019Z,1.65
2018-02-05T19:40:40.984Z,1.60
2018-02-05T19:41:40.955Z,1.68
2018-02-05T19:42:40.940Z,1.65
2018-02-05T19:43:40.913Z,1.55
2018-02-05T19:44:40.944Z,1.52
2018-02-05T19:45:40.880Z,1.46
2018-02-05T19:46:40.841Z,1.54
2018-02-05T19:47:40.831Z,1.44
2018-02-05T19:48:40.791Z,1.50
2018-02-05T19:49:40.771Z,1.44
2018-02-05T19:50:40.831Z,1.44
2018-02-05T19:51:40.728Z,1.39
2018-02-05T19:52:40.695Z,1.43
2018-02-05T19:53:40.676Z,1.39
2018-02-05T19:54:40.647Z,1.36
2018-02-05T19:55:40.625Z,1.32
2018-02-05T19:56:40.600Z,1.32
2018-02-05T19:57:40.585Z,1.28
2018-02-05T19:58:40.561Z,1.25
2018-02-05T19:59:40.537Z,1.26
2018-02-05T20:00:40.503Z,1.22
2018-02-05T20:01:40.483Z,1.26
2018-02-05T20:02:40.469Z,1.24
2018-02-05T20:03:40.433Z,1.25
2018-02-05T20:04:40.412Z,1.25
2018-02-05T20:05:40.409Z,1.19
2018-02-05T20:06:40.380Z,1.21
2018-02-05T20:07:40.343Z,1.08
2018-02-05T20:08:40.316Z,1.14
2018-02-05T20:09:40.297Z,1.08
2018-02-05T20:10:40.266Z,1.07
2018-02-05T20:11:40.242Z,1.10
2018-02-05T20:12:40.223Z,1.10
2018-02-05T20:13:40.226Z,1.25
2018-02-05T20:14:40.172Z,1.08
2018-02-05T20:15:40.151Z,1.16
2018-02-05T20:16:40.126Z,1.12
2018-02-05T20:17:40.200Z,1.10
2018-02-05T20:18:40.078Z,1.15
2018-02-05T20:19:40.055Z,1.07
2018-02-05T20:20:40.031Z,1.08
2018-02-05T20:21:40.002Z,1.07
2018-02-05T20:22:40.006Z,1.04
2018-02-05T20:23:39.960Z,1.00
2018-02-05T20:24:39.932Z,1.04
2018-02-05T20:25:39.909Z,1.04
2018-02-05T20:26:39.884Z,1.04
2018-02-05T20:27:39.891Z,1.01
2018-02-05T20:28:39.844Z,1.06
2018-02-05T20:29:39.810Z,0.94
2018-02-05T20:30:39.783Z,0.94
2018-02-05T20:31:39.760Z,1.00
2018-02-05T20:32:39.735Z,1.03
2018-02-05T20:33:39.711Z,0.97
2018-02-05T20:34:39.692Z,1.01
2018-02-05T20:35:39.669Z,1.01
2018-02-05T20:36:39.683Z,1.06
2018-02-05T20:37:39.621Z,1.01
2018-02-05T20:38:39.620Z,0.96
2018-02-05T20:39:39.590Z,1.00
2018-02-05T20:40:39.565Z,0.98
2018-02-05T20:41:39.527Z,0.89
2018-02-05T20:42:39.620Z,0.94
2018-02-05T20:43:39.556Z,0.92
2018-02-05T20:44:39.592Z,0.88
2018-02-05T20:45:39.451Z,0.92
2018-02-05T20:46:39.407Z,0.89
2018-02-05T20:47:39.389Z,0.90
2018-02-05T20:48:39.353Z,0.90
2018-02-05T20:49:39.328Z,0.90
2018-02-05T20:50:39.312Z,0.90
2018-02-05T20:51:39.274Z,0.92
2018-02-05T20:52:39.249Z,0.89
2018-02-05T20:53:39.227Z,0.85
2018-02-05T20:54:39.204Z,0.80
2018-02-05T20:55:39.178Z,0.78
2018-02-05T20:56:39.157Z,0.79
2018-02-05T20:57:39.133Z,0.80
2018-02-05T20:58:39.112Z,0.80
2018-02-05T20:59:39.084Z,0.76
2018-02-05T21:00:39.056Z,0.82
2018-02-05T21:01:39.036Z,0.79
2018-02-05T21:02:39.015Z,0.79
2018-02-05T21:03:38.983Z,0.79
2018-02-05T21:04:38.960Z,0.79
2018-02-05T21:05:38.942Z,0.75
2018-02-05T21:06:38.911Z,0.78
2018-02-05T21:07:38.903Z,0.82
2018-02-05T21:08:38.865Z,0.88
2018-02-05T21:09:38.834Z,0.86
2018-02-05T21:10:38.813Z,0.88
2018-02-05T21:11:38.790Z,0.78
2018-02-05T21:12:38.771Z,0.86
2018-02-05T21:13:38.737Z,0.86
2018-02-05T21:14:38.736Z,0.80
2018-02-05T21:15:38.708Z,0.83
2018-02-05T21:16:38.668Z,0.88
2018-02-05T21:17:38.644Z,0.80
2018-02-05T21:18:38.620Z,0.80
2018-02-05T21:19:38.597Z,0.80
2018-02-05T21:20:38.574Z,0.76
2018-02-05T21:21:38.547Z,0.78
2018-02-05T21:22:38.521Z,0.82
2018-02-05T21:23:38.524Z,0.79
2018-02-05T21:24:38.490Z,0.80
2018-02-05T21:25:38.448Z,0.79
2018-02-05T21:26:38.425Z,0.78
2018-02-05T21:27:38.396Z,0.76
2018-02-05T21:28:38.376Z,0.67
2018-02-05T21:29:38.348Z,0.83
2018-02-05T21:30:38.327Z,0.79
2018-02-05T21:31:38.303Z,0.86
2018-02-05T21:32:38.276Z,0.80
2018-02-05T21:33:38.274Z,0.76
2018-02-05T21:34:38.230Z,0.78
2018-02-05T21:35:38.214Z,0.80
2018-02-05T21:36:38.184Z,0.80
2018-02-05T21:37:38.152Z,0.79
2018-02-05T21:38:38.151Z,0.76
2018-02-05T21:39:38.108Z,0.76
2018-02-05T21:40:38.080Z,0.82
2018-02-05T21:41:38.073Z,0.67
2018-02-05T21:42:38.034Z,0.71
2018-02-05T21:43:38.008Z,0.65
2018-02-05T21:44:38.017Z,0.61
2018-02-05T21:45:37.959Z,0.61
2018-02-05T21:46:37.935Z,0.64
2018-02-05T21:47:37.911Z,0.60
2018-02-05T21:48:37.889Z,0.61
2018-02-05T21:49:37.936Z,0.58
2018-02-05T21:50:37.955Z,0.62
2018-02-05T21:51:37.815Z,0.68
2018-02-05T21:52:37.792Z,0.61
2018-02-05T21:53:37.788Z,0.62
2018-02-05T21:54:37.747Z,0.82
2018-02-05T21:55:37.715Z,0.67
2018-02-05T21:56:37.691Z,0.60
2018-02-05T21:57:37.690Z,0.71
2018-02-05T21:58:37.644Z,0.76
2018-02-05T21:59:37.623Z,0.68
2018-02-05T22:00:37.598Z,0.72
2018-02-05T22:01:37.577Z,0.71
2018-02-05T22:02:37.548Z,0.68
2018-02-05T22:03:37.519Z,0.62
2018-02-05T22:04:37.499Z,0.68
2018-02-05T22:05:37.476Z,0.61
2018-02-05T22:06:37.449Z,0.67
2018-02-05T22:07:37.424Z,0.65
2018-02-05T22:08:37.408Z,0.65
2018-02-05T22:09:37.376Z,0.71
2018-02-05T22:10:37.350Z,0.65
2018-02-05T22:11:37.336Z,0.70
2018-02-05T22:12:37.307Z,0.60
2018-02-05T22:13:37.275Z,0.67
2018-02-05T22:14:37.251Z,0.64
2018-02-05T22:15:37.226Z,0.64
2018-02-05T22:16:37.207Z,0.61
2018-02-05T22:17:37.182Z,0.70
2018-02-05T22:18:37.153Z,0.58
2018-02-05T22:19:37.143Z,0.64
2018-02-05T22:20:37.107Z,0.60
2018-02-05T22:21:37.090Z,0.71
2018-02-05T22:22:37.058Z,0.60
2018-02-05T22:23:37.037Z,0.61
2018-02-05T22:24:37.012Z,0.67
2018-02-05T22:25:36.985Z,0.64
2018-02-05T22:26:36.960Z,0.62
2018-02-05T22:27:36.938Z,0.64
2018-02-05T22:28:36.910Z,0.64
2018-02-05T22:29:36.885Z,0.61
2018-02-05T22:30:36.866Z,0.61
2018-02-05T22:31:36.854Z,0.60
2018-02-05T22:32:36.834Z,0.57
2018-02-05T22:33:36.788Z,0.45
2018-02-05T22:34:36.762Z,0.46
2018-02-05T22:35:36.740Z,0.51
2018-02-05T22:36:36.714Z,0.52
2018-02-05T22:37:36.688Z,0.42
2018-02-05T22:38:36.668Z,0.53
2018-02-05T22:39:36.644Z,0.46
2018-02-05T22:40:36.619Z,0.46
2018-02-05T22:41:36.591Z,0.46
2018-02-05T22:42:36.571Z,0.48
2018-02-05T22:43:36.545Z,0.41
2018-02-05T22:44:36.528Z,0.41
2018-02-05T22:45:36.494Z,0.48
2018-02-05T22:46:36.481Z,0.46
2018-02-05T22:47:36.448Z,0.41
2018-02-05T22:48:36.423Z,0.41
2018-02-05T22:49:36.443Z,0.30
2018-02-05T22:50:36.378Z,0.31
2018-02-05T22:51:36.345Z,0.34
2018-02-05T22:52:36.321Z,0.38
2018-02-05T22:53:36.296Z,0.33
2018-02-05T22:54:36.276Z,0.38
2018-02-05T22:55:36.247Z,0.31
2018-02-05T22:56:36.224Z,0.30
2018-02-05T22:57:36.198Z,0.38
2018-02-05T22:58:36.178Z,0.34
2018-02-05T22:59:36.153Z,0.24
2018-02-05T23:00:36.139Z,0.21
2018-02-05T23:01:36.100Z,0.24
2018-02-05T23:02:36.079Z,0.25
2018-02-05T23:03:36.053Z,0.25
2018-02-05T23:04:36.041Z,0.20
2018-02-05T23:05:36.011Z,0.21
2018-02-05T23:06:35.989Z,0.15
2018-02-05T23:07:35.955Z,0.27
2018-02-05T23:08:35.931Z,0.24
2018-02-05T23:09:35.902Z,0.23
2018-02-05T23:10:35.881Z,0.13
2018-02-05T23:11:35.863Z,0.16
2018-02-05T23:12:35.827Z,0.20
2018-02-05T23:13:35.804Z,0.18
2018-02-05T23:14:35.780Z,0.18
2018-02-05T23:15:35.757Z,0.16
2018-02-05T23:16:35.748Z,0.18
2018-02-05T23:17:35.710Z,0.23
2018-02-05T23:18:35.718Z,0.20
2018-02-05T23:19:35.655Z,0.18
2018-02-05T23:20:35.630Z,0.13
2018-02-05T23:21:35.609Z,0.15
2018-02-05T23:22:35.580Z,0.10
2018-02-05T23:23:35.555Z,0.12
2018-02-05T23:24:35.531Z,0.09
2018-02-05T23:25:35.514Z,0.10
2018-02-05T23:26:35.485Z,0.02
2018-02-05T23:27:35.456Z,-0.01
2018-02-05T23:28:35.436Z,0.02
2018-02-05T23:29:35.410Z,0.05
2018-02-05T23:30:35.386Z,0.06
2018-02-05T23:31:35.363Z,0.00
2018-02-05T23:32:35.336Z,-0.04
2018-02-05T23:33:35.307Z,0.00
2018-02-05T23:34:35.288Z,0.10
2018-02-05T23:35:35.261Z,0.12
2018-02-05T23:36:35.234Z,-0.06
2018-02-05T23:37:35.213Z,0.02
2018-02-05T23:38:35.183Z,-0.01
2018-02-05T23:39:35.160Z,-0.04
2018-02-05T23:40:35.138Z,-0.06
2018-02-05T23:41:35.112Z,-0.08
2018-02-05T23:42:35.108Z,-0.06
2018-02-05T23:43:35.085Z,0.02
2018-02-05T23:44:35.038Z,-0.05
2018-02-05T23:45:35.012Z,-0.08
2018-02-05T23:46:34.988Z,-0.11
2018-02-05T23:47:34.961Z,-0.13
2018-02-05T23:48:34.934Z,-0.18
2018-02-05T23:49:34.913Z,-0.29
2018-02-05T23:50:34.884Z,-0.18
2018-02-05T23:51:34.865Z,-0.22
2018-02-05T23:52:34.839Z,-0.23
2018-02-05T23:53:34.809Z,-0.18
2018-02-05T23:54:34.785Z,-0.26
2018-02-05T23:55:34.759Z,-0.31
2018-02-05T23:56:34.740Z,-0.27
2018-02-05T23:57:34.709Z,-0.22
2018-02-05T23:58:34.697Z,-0.30
2018-02-05T23:59:34.675Z,-0.24
